Time;durP1;ratioP1;P1;durP2;ratioP2;P2;SDS_P1;SDS_P2;PMS_P1;PMS_P2;Temp;Humidity;BMP_temperature;BMP_pressure;BME280_temperature;BME280_humidity;BME280_pressure;Samples;Min_cycle;Max_cycle;Signal;HPM_P1;HPM_P2
2022/12/23 00:00:28;;;;;;;137.83;71.27;;;;;;;3.49;83.86;94748.09;5095750;28;20443;-74
2022/12/23 00:02:55;;;;;;;138.20;77.30;;;;;;;3.24;84.75;94749.53;5095327;28;20464;-74
2022/12/23 00:05:22;;;;;;;133.73;74.87;;;;;;;3.25;84.93;94751.22;5095384;28;20501;-74
2022/12/23 00:07:48;;;;;;;130.00;73.33;;;;;;;3.24;85.95;94756.50;5095338;28;20444;-74
2022/12/23 00:10:17;;;;;;;135.80;75.17;;;;;;;3.25;86.42;94750.38;5095660;28;20487;-74
2022/12/23 00:15:27;;;;;;;142.43;74.60;;;;;;;3.30;86.14;94761.31;5095247;28;20436;-74
2022/12/23 00:17:54;;;;;;;150.67;79.13;;;;;;;3.38;85.42;94769.47;5094987;28;20477;-74
2022/12/23 00:20:21;;;;;;;138.30;75.90;;;;;;;3.44;85.66;94761.31;5095069;28;20493;-74
2022/12/23 00:23:06;;;;;;;140.37;75.30;;;;;;;3.47;84.39;94768.94;5095138;28;20451;-74
2022/12/23 00:25:43;;;;;;;137.10;72.67;;;;;;;3.48;83.82;94764.59;5095483;28;20451;-74
2022/12/23 00:28:12;;;;;;;130.00;67.63;;;;;;;3.47;83.79;94771.53;5094901;28;20452;-74
2022/12/23 00:30:45;;;;;;;123.90;65.50;;;;;;;3.49;83.57;94772.28;5094739;28;20552;-75
2022/12/23 00:33:12;;;;;;;117.20;65.70;;;;;;;3.55;83.76;94776.25;5094879;28;20523;-74
2022/12/23 00:35:39;;;;;;;128.03;66.93;;;;;;;3.57;82.79;94775.25;5095034;28;20497;-74
2022/12/23 00:38:05;;;;;;;119.03;62.67;;;;;;;3.61;83.59;94778.50;5094630;28;20455;-74
2022/12/23 00:43:18;;;;;;;112.57;66.97;;;;;;;3.61;83.94;94771.53;5094725;28;20546;-73
2022/12/23 00:45:45;;;;;;;144.13;71.20;;;;;;;3.63;84.29;94759.31;5094596;28;20440;-74
2022/12/23 00:50:56;;;;;;;115.77;60.10;;;;;;;3.66;83.23;94771.25;5094548;28;20478;-74
2022/12/23 00:53:23;;;;;;;124.67;59.47;;;;;;;3.68;83.54;94759.84;5094736;28;20448;-74
2022/12/23 00:55:51;;;;;;;103.70;58.37;;;;;;;3.68;83.33;94751.25;5094475;28;20440;-74
2022/12/23 00:58:20;;;;;;;109.50;59.97;;;;;;;3.66;83.37;94753.94;5094627;28;20444;-74
2022/12/23 01:06:17;;;;;;;125.73;68.77;;;;;;;3.59;84.04;94741.44;5094016;28;20442;-74
2022/12/23 01:08:44;;;;;;;128.40;60.27;;;;;;;3.60;84.61;94740.50;5094033;28;20516;-74
2022/12/23 01:11:12;;;;;;;117.30;63.73;;;;;;;3.61;84.06;94731.78;5094043;28;20540;-73
2022/12/23 01:13:41;;;;;;;113.43;55.00;;;;;;;3.61;83.62;94732.63;5041637;28;20464;-74
2022/12/23 01:16:11;;;;;;;90.10;47.30;;;;;;;3.63;83.02;94740.31;5094087;28;20992;-74
2022/12/23 01:18:37;;;;;;;97.20;47.47;;;;;;;3.44;83.66;94750.94;5093959;28;20448;-74
2022/12/23 01:21:05;;;;;;;82.03;43.70;;;;;;;3.34;83.87;94739.44;5094037;28;20525;-74
2022/12/23 01:23:32;;;;;;;73.97;43.47;;;;;;;3.37;84.19;94740.09;5040711;28;20497;-74
2022/12/23 01:26:01;;;;;;;73.20;40.70;;;;;;;3.30;85.08;94737.97;5093690;28;20444;-74
2022/12/23 01:28:31;;;;;;;71.80;39.83;;;;;;;3.40;84.84;94741.69;5093562;28;20508;-74
2022/12/23 01:30:59;;;;;;;76.50;41.17;;;;;;;3.29;85.15;94746.69;5094024;28;20492;-74
2022/12/23 01:33:26;;;;;;;110.53;56.47;;;;;;;3.39;85.09;94758.16;5093554;28;20447;-74
2022/12/23 01:36:00;;;;;;;100.60;53.27;;;;;;;3.43;85.04;94757.06;5093664;28;20448;-74
2022/12/23 01:38:27;;;;;;;93.77;50.00;;;;;;;3.38;84.05;94752.16;5093771;28;20481;-74
2022/12/23 01:40:53;;;;;;;91.07;53.20;;;;;;;3.38;84.69;94757.34;5093790;28;20448;-74
2022/12/23 01:43:19;;;;;;;92.00;55.37;;;;;;;3.32;84.91;94746.50;5093407;28;20448;-75
2022/12/23 01:45:48;;;;;;;102.73;53.00;;;;;;;3.34;84.89;94749.81;5093345;28;20520;-74
2022/12/23 01:48:19;;;;;;;82.50;50.23;;;;;;;3.34;84.24;94740.28;5093353;28;20501;-74
2022/12/23 01:50:49;;;;;;;105.00;54.07;;;;;;;3.36;84.92;94737.59;5093344;28;20487;-74
2022/12/23 01:53:19;;;;;;;94.10;50.30;;;;;;;3.34;85.09;94736.88;5093467;28;20447;-74
2022/12/23 01:55:51;;;;;;;99.83;52.37;;;;;;;3.39;85.27;94733.06;5093178;28;20444;-74
2022/12/23 01:58:23;;;;;;;103.37;48.93;;;;;;;3.47;85.24;94730.03;5093326;28;20443;-74
2022/12/23 02:03:42;;;;;;;81.03;43.70;;;;;;;3.61;85.01;94717.06;5093337;28;20430;-74
2022/12/23 02:12:00;;;;;;;52.10;32.63;;;;;;;3.78;84.01;94713.44;5093142;28;20492;-74
2022/12/23 02:17:29;;;;;;;37.37;25.13;;;;;;;3.84;83.19;94694.06;5093049;28;20431;-74
2022/12/23 02:20:23;;;;;;;36.93;24.67;;;;;;;3.85;84.08;94685.34;5092789;28;20452;-74
2022/12/23 02:23:14;;;;;;;37.97;23.83;;;;;;;3.88;84.13;94682.56;5092985;28;20455;-74
2022/12/23 02:26:01;;;;;;;50.40;31.50;;;;;;;3.88;83.90;94680.81;5092862;28;20509;-74
2022/12/23 02:28:56;;;;;;;56.43;33.43;;;;;;;3.82;84.10;94681.19;5093004;28;20452;-74
2022/12/23 02:31:29;;;;;;;79.57;40.37;;;;;;;3.66;84.15;94680.44;5040513;28;20864;-74
2022/12/23 02:34:02;;;;;;;69.40;40.00;;;;;;;3.69;85.15;94673.31;5092385;28;20451;-74
2022/12/23 02:36:38;;;;;;;75.23;39.60;;;;;;;3.69;84.88;94688.88;5092265;28;20440;-74
2022/12/23 02:39:09;;;;;;;91.27;50.60;;;;;;;3.53;85.37;94690.75;5092708;28;20835;-74
2022/12/23 02:41:44;;;;;;;85.87;49.03;;;;;;;3.44;86.33;94693.88;5092715;28;20587;-74
2022/12/23 02:44:19;;;;;;;83.30;46.90;;;;;;;3.44;85.49;94693.88;5092820;28;20447;-73
2022/12/23 02:46:51;;;;;;;88.33;45.47;;;;;;;3.18;86.97;94692.00;5092614;28;20455;-74
2022/12/23 02:49:23;;;;;;;102.00;51.87;;;;;;;3.25;87.41;94688.97;5092576;28;20504;-74
2022/12/23 02:51:54;;;;;;;76.83;46.90;;;;;;;3.15;87.62;94692.19;5092302;28;20564;-74
2022/12/23 02:54:26;;;;;;;109.07;55.40;;;;;;;3.08;88.60;94697.75;5092296;28;20448;-74
2022/12/23 02:56:55;;;;;;;94.87;50.83;;;;;;;3.12;88.19;94695.81;5092501;28;20493;-74
2022/12/23 02:59:26;;;;;;;81.17;45.23;;;;;;;2.96;89.25;94693.28;5092177;28;20448;-74
2022/12/23 03:01:55;;;;;;;72.03;44.60;;;;;;;2.99;89.07;94693.09;5092375;28;20476;-74
2022/12/23 03:04:22;;;;;;;98.70;47.27;;;;;;;3.05;89.55;94684.97;5092280;28;20454;-74
2022/12/23 03:06:52;;;;;;;67.67;42.30;;;;;;;3.09;88.98;94689.03;5092536;28;20444;-73
2022/12/23 03:09:27;;;;;;;80.93;45.97;;;;;;;3.02;89.45;94692.94;5092309;28;20497;-74
2022/12/23 03:12:01;;;;;;;75.33;46.43;;;;;;;3.06;89.70;94688.41;5039842;28;21070;-74
2022/12/23 03:14:50;;;;;;;90.90;45.90;;;;;;;2.96;89.25;94714.03;5092591;28;20447;-74
2022/12/23 03:17:35;;;;;;;91.03;47.57;;;;;;;2.87;90.19;94693.81;5092476;28;20463;-74
2022/12/23 03:20:13;;;;;;;87.47;44.83;;;;;;;2.85;89.90;94702.59;5092339;28;20553;-74
2022/12/23 03:22:49;;;;;;;73.00;44.17;;;;;;;2.78;89.82;94694.34;5092525;28;20460;-73
2022/12/23 03:25:21;;;;;;;91.53;47.37;;;;;;;2.73;90.75;94701.56;5092217;28;20504;-75
2022/12/23 03:27:53;;;;;;;81.77;44.80;;;;;;;2.80;91.17;94698.50;5092235;28;20837;-74
2022/12/23 03:30:22;;;;;;;92.10;46.30;;;;;;;2.90;90.48;94693.66;5092031;28;20842;-74
2022/12/23 03:32:54;;;;;;;84.40;45.77;;;;;;;2.97;90.43;94692.38;5092011;28;20935;-74
2022/12/23 03:35:25;;;;;;;74.37;43.67;;;;;;;3.02;89.51;94703.28;5092396;28;20496;-74
2022/12/23 03:37:54;;;;;;;71.90;44.00;;;;;;;3.08;88.94;94684.78;5092033;28;20473;-74
2022/12/23 03:40:26;;;;;;;74.57;44.00;;;;;;;3.16;89.58;94699.03;5092260;28;20475;-74
2022/12/23 03:42:57;;;;;;;70.53;41.97;;;;;;;3.07;88.65;94706.44;5091837;28;20920;-74
2022/12/23 03:45:29;;;;;;;68.83;41.40;;;;;;;3.07;88.94;94685.72;5092153;28;20915;-74
2022/12/23 03:48:03;;;;;;;74.13;43.63;;;;;;;3.04;88.29;94693.66;5093822;28;20451;-74
2022/12/23 03:50:32;;;;;;;68.80;40.23;;;;;;;3.00;88.93;94699.13;5095696;28;20496;-74
2022/12/23 03:53:04;;;;;;;76.57;41.00;;;;;;;3.00;89.10;94701.72;5096173;28;20931;-74
2022/12/23 03:55:36;;;;;;;75.80;44.10;;;;;;;2.98;89.05;94701.81;5095517;28;20443;-74
2022/12/23 03:58:10;;;;;;;94.37;46.27;;;;;;;3.01;88.93;94706.81;5095605;28;20493;-74
2022/12/23 04:00:44;;;;;;;84.90;42.97;;;;;;;2.98;89.29;94700.97;5095462;28;20451;-74
2022/12/23 04:03:19;;;;;;;87.40;47.67;;;;;;;3.03;89.20;94706.72;5095115;28;20503;-74
2022/12/23 04:05:52;;;;;;;73.17;42.13;;;;;;;3.06;88.87;94704.78;5095372;28;20455;-74
2022/12/23 04:08:25;;;;;;;65.70;39.07;;;;;;;3.09;89.27;94691.63;5095040;28;20538;-74
2022/12/23 04:10:53;;;;;;;58.40;38.03;;;;;;;3.19;87.98;94699.72;5095288;28;20490;-74
2022/12/23 04:13:19;;;;;;;69.47;39.10;;;;;;;3.31;87.96;94704.16;5094633;28;20444;-74
2022/12/23 04:15:50;;;;;;;72.33;40.73;;;;;;;3.39;88.13;94706.28;5095341;28;20496;-74
2022/12/23 04:18:18;;;;;;;72.33;42.27;;;;;;;3.46;87.41;94710.19;5094834;28;20536;-74
2022/12/23 04:20:45;;;;;;;73.47;40.57;;;;;;;3.56;87.25;94707.88;5042692;28;21018;-74
2022/12/23 04:23:12;;;;;;;63.87;38.97;;;;;;;3.61;87.02;94700.66;5095247;28;20486;-74
2022/12/23 04:25:39;;;;;;;63.70;36.47;;;;;;;3.67;87.22;94695.09;5094681;28;20983;-74
2022/12/23 04:28:05;;;;;;;60.47;36.40;;;;;;;3.72;86.14;94693.88;5042838;28;20504;-74
2022/12/23 04:30:32;;;;;;;62.97;33.07;;;;;;;3.77;86.21;94698.81;5042242;28;20478;-74
2022/12/23 04:32:59;;;;;;;52.33;33.13;;;;;;;3.68;85.18;94709.72;5094775;28;20511;-74
2022/12/23 04:35:27;;;;;;;67.30;37.57;;;;;;;3.61;86.06;94708.44;5094567;28;20470;-75
2022/12/23 04:37:54;;;;;;;62.20;37.30;;;;;;;3.63;86.68;94714.38;5094633;28;20497;-74
2022/12/23 04:40:21;;;;;;;81.90;42.73;;;;;;;3.66;87.47;94709.81;5094642;28;20512;-74
2022/12/23 04:42:47;;;;;;;63.93;39.40;;;;;;;3.69;87.84;94696.66;5094755;28;20444;-74
2022/12/23 04:45:14;;;;;;;69.23;39.87;;;;;;;3.68;87.10;94692.41;5094607;28;20440;-74
2022/12/23 04:47:41;;;;;;;97.70;46.53;;;;;;;3.70;85.96;94689.72;5094803;28;20452;-74
2022/12/23 04:50:13;;;;;;;83.77;44.20;;;;;;;3.74;86.20;94686.81;5094629;28;20741;-74
2022/12/23 04:52:41;;;;;;;64.27;34.07;;;;;;;3.77;86.39;94680.66;5094473;28;20541;-74
2022/12/23 04:55:09;;;;;;;62.90;31.67;;;;;;;3.80;87.14;94685.66;5094409;28;20451;-73
2022/12/23 04:57:35;;;;;;;46.53;28.77;;;;;;;3.82;86.74;94690.75;5058920;28;20448;-74
2022/12/23 05:00:02;;;;;;;50.47;29.37;;;;;;;3.81;87.01;94691.66;5094518;28;20512;-76
2022/12/23 05:02:29;;;;;;;49.73;29.87;;;;;;;3.84;87.60;94688.88;5094095;28;20812;-74
2022/12/23 05:04:57;;;;;;;52.57;31.73;;;;;;;3.85;87.30;94687.94;5093560;28;21020;-75
2022/12/23 05:07:24;;;;;;;57.10;30.47;;;;;;;3.84;87.79;94697.50;5041503;28;20444;-75
2022/12/23 05:09:52;;;;;;;67.30;34.63;;;;;;;3.68;88.61;94707.13;5093959;28;20451;-75
2022/12/23 05:12:19;;;;;;;76.60;44.03;;;;;;;3.63;88.90;94710.00;5093431;28;20981;-74
2022/12/23 05:14:46;;;;;;;79.23;44.53;;;;;;;3.64;88.52;94711.69;5093924;28;20513;-75
2022/12/23 05:17:12;;;;;;;75.33;45.17;;;;;;;3.59;88.50;94716.31;5094050;28;20942;-74
2022/12/23 05:19:39;;;;;;;89.50;46.40;;;;;;;3.39;88.59;94698.50;5094118;28;20447;-74
2022/12/23 05:22:06;;;;;;;84.77;46.60;;;;;;;3.31;89.94;94708.53;5094185;28;20501;-75
2022/12/23 05:24:32;;;;;;;79.80;47.17;;;;;;;3.35;89.05;94720.38;5041975;28;20834;-74
2022/12/23 05:27:01;;;;;;;74.00;46.53;;;;;;;3.34;89.37;94719.53;5093873;28;20448;-75
2022/12/23 05:29:27;;;;;;;80.73;47.13;;;;;;;3.40;90.08;94718.34;5093911;28;20787;-75
2022/12/23 05:31:54;;;;;;;84.63;48.27;;;;;;;3.50;89.50;94736.81;5093443;28;20492;-75
2022/12/23 05:34:21;;;;;;;75.60;41.30;;;;;;;3.56;89.04;94732.06;5093975;28;20918;-75
2022/12/23 05:36:48;;;;;;;78.03;42.97;;;;;;;3.58;88.96;94735.41;5041612;28;20497;-74
2022/12/23 05:39:14;;;;;;;72.60;41.90;;;;;;;3.59;89.36;94737.06;5093598;28;20451;-75
2022/12/23 05:41:41;;;;;;;75.67;42.47;;;;;;;3.66;88.21;94738.38;5093363;28;20440;-75
2022/12/23 05:44:09;;;;;;;73.97;39.27;;;;;;;3.73;88.30;94742.25;5093489;28;20447;-74
2022/12/23 05:46:36;;;;;;;75.83;38.33;;;;;;;3.69;88.80;94737.34;5093280;28;20459;-75
2022/12/23 05:49:03;;;;;;;75.37;38.90;;;;;;;3.74;87.86;94738.72;5041251;28;20444;-75
2022/12/23 05:51:29;;;;;;;69.87;40.53;;;;;;;3.50;88.97;94732.44;5038661;28;20545;-75
2022/12/23 05:53:57;;;;;;;71.27;39.07;;;;;;;3.56;88.89;94715.69;5069058;28;20452;-75
2022/12/23 05:56:24;;;;;;;65.43;41.33;;;;;;;3.59;88.16;94721.50;5093251;28;20475;-74
2022/12/23 05:58:50;;;;;;;70.30;39.03;;;;;;;3.57;88.09;94727.72;5090779;28;20464;-75
2022/12/23 06:01:18;;;;;;;75.43;41.07;;;;;;;3.66;88.64;94725.38;5094013;28;20529;-76
2022/12/23 06:03:45;;;;;;;72.03;40.13;;;;;;;3.71;89.15;94727.69;5081287;28;20453;-76
2022/12/23 06:06:12;;;;;;;74.50;39.83;;;;;;;3.70;88.75;94731.22;5078973;28;20477;-74
2022/12/23 06:08:39;;;;;;;88.03;43.90;;;;;;;3.75;89.58;94726.59;5075546;28;20502;-75
2022/12/23 06:11:06;;;;;;;105.53;52.87;;;;;;;3.66;89.29;94740.13;5072637;28;20448;-75
2022/12/23 06:13:32;;;;;;;90.43;53.47;;;;;;;3.56;91.12;94732.06;5073063;28;20449;-76
2022/12/23 06:15:59;;;;;;;110.40;54.43;;;;;;;3.64;91.43;94723.81;5037302;28;20506;-76
2022/12/23 06:18:28;;;;;;;83.23;45.40;;;;;;;3.68;91.46;94717.50;5072736;28;20507;-76
2022/12/23 06:20:55;;;;;;;79.47;47.20;;;;;;;3.79;91.53;94729.84;5083647;28;20468;-73
2022/12/23 06:23:22;;;;;;;96.40;48.07;;;;;;;3.76;90.14;94737.78;5091049;28;20774;-76
2022/12/23 06:25:48;;;;;;;109.00;53.57;;;;;;;3.74;90.19;94735.28;5073227;28;20448;-74
2022/12/23 06:28:15;;;;;;;83.93;50.00;;;;;;;3.87;91.48;94738.00;5087136;28;21158;-75
2022/12/23 06:30:42;;;;;;;82.60;49.20;;;;;;;3.82;91.42;94740.03;5092335;28;20442;-75
2022/12/23 06:33:09;;;;;;;122.63;66.40;;;;;;;3.87;91.04;94732.81;5079146;28;20478;-75
2022/12/23 06:35:37;;;;;;;126.33;72.50;;;;;;;3.80;90.06;94732.34;5078838;28;20498;-74
2022/12/23 06:38:03;;;;;;;111.97;64.87;;;;;;;3.96;89.28;94727.03;5088884;28;20914;-76
2022/12/23 06:40:30;;;;;;;111.83;61.70;;;;;;;4.00;89.50;94736.31;5082865;28;20444;-74
2022/12/23 06:42:57;;;;;;;111.23;62.80;;;;;;;3.94;88.35;94734.09;5088572;28;20448;-74
2022/12/23 06:45:24;;;;;;;97.17;54.10;;;;;;;4.04;88.42;94733.41;5072349;28;20924;-74
2022/12/23 06:47:50;;;;;;;81.53;48.45;;;;;;;6.17;100.00;94735.88;5086533;28;20440;-75
2022/12/23 06:50:17;;;;;;;95.20;56.23;;;;;;;5.00;100.00;94752.44;5092950;28;20198;-75
2022/12/23 06:52:46;;;;;;;82.80;48.13;;;;;;;4.74;94.14;94756.75;5090264;28;21042;-74
2022/12/23 06:55:13;;;;;;;92.93;53.87;;;;;;;4.69;91.76;94756.19;5079122;28;20478;-74
2022/12/23 06:57:39;;;;;;;85.67;49.47;;;;;;;4.67;89.93;94755.47;5039663;28;20436;-74
2022/12/23 07:00:08;;;;;;;89.17;47.87;;;;;;;4.62;90.26;94757.50;5088456;28;20915;-74
2022/12/23 07:02:35;;;;;;;88.70;49.30;;;;;;;4.43;88.77;94754.41;5076666;28;20487;-74
2022/12/23 07:05:01;;;;;;;94.07;54.13;;;;;;;4.40;88.90;94765.00;5047221;28;20494;-74
2022/12/23 07:07:28;;;;;;;98.70;54.33;;;;;;;4.38;88.67;94772.06;5089110;28;20494;-74
2022/12/23 07:09:57;;;;;;;86.03;48.40;;;;;;;4.30;88.76;94762.97;5036930;28;20531;-74
2022/12/23 07:12:24;;;;;;;108.40;51.00;;;;;;;4.23;88.57;94758.25;5071317;28;20991;-75
2022/12/23 07:14:51;;;;;;;82.13;48.50;;;;;;;4.24;88.85;94765.13;5071375;28;20440;-75
2022/12/23 07:17:18;;;;;;;100.40;55.80;;;;;;;4.26;88.97;94769.28;5036156;28;20486;-74
2022/12/23 07:19:44;;;;;;;97.43;54.80;;;;;;;4.21;89.60;94766.16;5071414;28;20453;-74
2022/12/23 07:22:11;;;;;;;83.77;51.23;;;;;;;4.21;90.58;94767.91;5072358;28;20460;-75
2022/12/23 07:24:38;;;;;;;84.27;47.70;;;;;;;4.14;90.83;94772.66;5075273;28;20440;-75
2022/12/23 07:27:06;;;;;;;77.70;45.40;;;;;;;4.24;89.91;94771.16;5074934;28;20935;-75
2022/12/23 07:29:32;;;;;;;70.07;41.97;;;;;;;4.30;90.02;94765.56;5023354;28;20871;-74
2022/12/23 07:32:01;;;;;;;68.40;40.97;;;;;;;4.37;89.66;94760.84;5074948;28;20488;-74
2022/12/23 07:34:28;;;;;;;66.07;38.40;;;;;;;4.44;90.12;94764.72;5075006;28;20440;-74
2022/12/23 07:36:55;;;;;;;67.00;37.47;;;;;;;4.51;89.36;94767.75;5074874;28;20449;-75
2022/12/23 07:39:22;;;;;;;69.90;40.93;;;;;;;4.40;89.42;94771.03;5075097;28;20441;-75
2022/12/23 07:41:48;;;;;;;59.77;36.57;;;;;;;4.33;89.60;94772.31;5039382;28;20490;-74
2022/12/23 07:44:16;;;;;;;73.67;40.37;;;;;;;4.41;89.48;94770.09;5074960;28;20469;-74
2022/12/23 07:46:43;;;;;;;51.53;35.77;;;;;;;4.46;89.45;94777.59;5075035;28;20452;-74
2022/12/23 07:49:10;;;;;;;54.60;36.40;;;;;;;4.48;87.91;94775.75;5075002;28;20808;-74
2022/12/23 07:51:37;;;;;;;63.77;36.70;;;;;;;4.53;87.51;94786.69;5074651;28;20853;-75
2022/12/23 07:54:04;;;;;;;66.47;40.10;;;;;;;4.51;87.63;94786.78;5074713;28;20825;-75
2022/12/23 07:56:30;;;;;;;62.40;41.27;;;;;;;4.47;87.33;94784.47;5074648;28;20867;-74
2022/12/23 07:58:57;;;;;;;64.27;41.87;;;;;;;4.54;87.07;94788.34;5074707;28;20923;-73
2022/12/23 08:01:25;;;;;;;82.10;49.63;;;;;;;4.56;87.50;94792.50;5074698;28;20468;-74
2022/12/23 08:03:52;;;;;;;78.33;45.90;;;;;;;4.59;87.37;94791.47;5074560;28;20449;-74
2022/12/23 08:06:19;;;;;;;84.63;45.80;;;;;;;4.66;86.62;94791.03;5074858;28;20502;-74
2022/12/23 08:08:46;;;;;;;70.17;45.13;;;;;;;4.73;86.70;94796.66;5074400;28;20449;-74
2022/12/23 08:11:15;;;;;;;85.70;49.50;;;;;;;4.80;86.32;94794.50;5075253;28;20494;-74
2022/12/23 08:13:43;;;;;;;81.03;45.87;;;;;;;4.85;87.02;94795.88;5074429;28;20496;-75
2022/12/23 08:16:11;;;;;;;66.50;41.90;;;;;;;4.89;86.51;94802.53;5074856;28;20932;-74
2022/12/23 08:18:41;;;;;;;68.20;39.50;;;;;;;4.80;87.17;94791.91;5074638;28;20540;-74
2022/12/23 08:21:11;;;;;;;72.60;40.67;;;;;;;4.97;86.96;94796.84;5074901;28;20808;-73
2022/12/23 08:23:38;;;;;;;68.57;38.70;;;;;;;5.08;85.62;94793.56;5074238;28;20445;-74
2022/12/23 08:26:07;;;;;;;71.83;35.80;;;;;;;5.16;85.63;94797.31;5074318;28;20449;-75
2022/12/23 08:28:34;;;;;;;73.93;35.20;;;;;;;5.27;85.28;94788.84;5074201;28;20453;-74
2022/12/23 08:31:07;;;;;;;65.20;35.70;;;;;;;5.41;83.23;94796.53;5074942;28;20453;-74
2022/12/23 08:33:33;;;;;;;62.80;37.97;;;;;;;5.45;82.69;94794.56;5073918;28;20492;-75
2022/12/23 08:36:02;;;;;;;72.67;40.60;;;;;;;5.54;82.02;94800.00;5074248;28;20493;-74
2022/12/23 08:38:28;;;;;;;59.30;37.43;;;;;;;5.66;81.74;94797.53;5038640;28;20496;-74
2022/12/23 08:40:55;;;;;;;76.17;38.43;;;;;;;5.73;80.87;94796.16;5073917;28;20568;-74
2022/12/23 08:43:22;;;;;;;68.53;38.93;;;;;;;5.74;81.20;94790.00;5022462;28;20465;-74
2022/12/23 08:45:49;;;;;;;73.07;42.60;;;;;;;5.75;81.65;94794.28;5022084;28;20502;-75
2022/12/23 08:48:16;;;;;;;68.20;45.00;;;;;;;5.71;81.35;94792.84;5074720;28;20510;-74
2022/12/23 08:50:45;;;;;;;70.17;43.33;;;;;;;5.70;81.11;94791.16;5073912;28;20449;-75
2022/12/23 08:53:14;;;;;;;81.37;47.83;;;;;;;5.69;81.88;94786.91;5073869;28;20542;-74
2022/12/23 08:55:42;;;;;;;72.70;45.20;;;;;;;5.71;81.74;94793.66;5074269;28;20477;-74
2022/12/23 08:58:11;;;;;;;86.43;52.73;;;;;;;5.59;82.38;94782.31;5073858;28;20453;-75
2022/12/23 09:00:38;;;;;;;80.40;45.60;;;;;;;5.55;82.12;94770.44;5073639;28;20456;-74
2022/12/23 09:03:05;;;;;;;65.43;41.17;;;;;;;5.65;82.95;94780.22;5073175;28;20944;-74
2022/12/23 09:05:32;;;;;;;63.60;40.13;;;;;;;5.73;83.24;94785.75;5074262;28;20503;-75
2022/12/23 09:08:00;;;;;;;67.53;39.23;;;;;;;5.90;83.17;94778.50;5074142;28;20503;-75
2022/12/23 09:10:28;;;;;;;62.67;36.47;;;;;;;5.99;83.90;94773.59;5074059;28;20448;-75
2022/12/23 09:13:01;;;;;;;53.77;34.73;;;;;;;6.06;82.88;94770.44;5077297;28;20473;-74
2022/12/23 09:15:28;;;;;;;61.03;36.30;;;;;;;6.08;82.75;94763.41;5078453;28;20441;-72
2022/12/23 09:17:54;;;;;;;65.97;38.40;;;;;;;6.20;82.57;94774.72;5076057;28;20912;-74
2022/12/23 09:20:21;;;;;;;63.83;36.80;;;;;;;6.32;81.42;94768.66;5073904;28;20451;-74
2022/12/23 09:22:48;;;;;;;58.50;36.83;;;;;;;6.39;81.96;94772.50;5073812;28;20461;-75
2022/12/23 09:25:15;;;;;;;62.50;37.53;;;;;;;6.42;81.76;94772.28;5076796;28;20451;-75
2022/12/23 09:27:43;;;;;;;65.10;40.70;;;;;;;6.54;80.52;94770.56;5073601;28;20446;-75
2022/12/23 09:30:11;;;;;;;63.63;38.40;;;;;;;6.51;80.51;94768.19;5093840;28;20445;-75
2022/12/23 09:32:37;;;;;;;62.43;38.93;;;;;;;6.49;80.73;94773.50;5088993;28;20536;-75
2022/12/23 09:35:05;;;;;;;66.20;39.20;;;;;;;6.37;80.71;94773.56;5074456;28;20438;-74
2022/12/23 09:37:31;;;;;;;59.23;38.80;;;;;;;6.47;81.20;94770.19;5039320;28;20493;-77
2022/12/23 09:39:58;;;;;;;61.30;37.30;;;;;;;6.70;80.61;94765.94;5074565;28;20450;-73
2022/12/23 09:42:33;;;;;;;62.10;37.73;;;;;;;6.92;79.03;94780.88;5073813;28;20450;-75
2022/12/23 09:45:15;;;;;;;49.77;30.70;;;;;;;7.06;77.65;94774.66;5092406;28;20447;-74
2022/12/23 09:47:42;;;;;;;55.10;34.27;;;;;;;7.26;76.51;94770.59;5095140;28;20477;-75
2022/12/23 09:50:20;;;;;;;52.27;30.83;;;;;;;7.40;75.38;94776.44;5094094;28;20442;-75
2022/12/23 09:52:57;;;;;;;51.33;30.50;;;;;;;7.50;75.07;94765.31;5093976;28;21042;-75
2022/12/23 09:55:31;;;;;;;53.27;34.10;;;;;;;7.60;74.52;94758.47;5074918;28;20509;-76
2022/12/23 09:58:01;;;;;;;53.10;35.83;;;;;;;7.65;74.85;94765.00;5076106;28;20517;-77
2022/12/23 10:00:39;;;;;;;46.13;30.77;;;;;;;7.68;74.05;94763.94;5074791;28;20818;-77
2022/12/23 10:03:19;;;;;;;59.53;32.10;;;;;;;7.74;74.07;94758.25;5076563;28;20471;-75
2022/12/23 10:05:55;;;;;;;55.03;30.10;;;;;;;7.83;74.73;94765.41;5096067;28;20447;-76
2022/12/23 10:08:30;;;;;;;57.47;33.23;;;;;;;7.49;74.68;94763.66;5093387;28;20567;-76
2022/12/23 10:11:00;;;;;;;64.63;34.80;;;;;;;7.41;75.36;94765.06;5075722;28;20501;-76
2022/12/23 10:13:34;;;;;;;57.23;32.07;;;;;;;7.60;75.78;94764.53;5075059;28;20548;-75
2022/12/23 10:16:06;;;;;;;59.20;34.20;;;;;;;7.79;75.31;94753.50;5074891;28;20458;-78
2022/12/23 10:18:53;;;;;;;56.50;32.90;;;;;;;7.87;73.96;94745.94;5078278;28;20444;-76
2022/12/23 10:21:30;;;;;;;53.70;32.10;;;;;;;8.03;74.18;94753.41;5094292;28;20990;-74
2022/12/23 10:23:56;;;;;;;56.93;32.47;;;;;;;8.18;74.15;94743.56;5093165;28;20510;-76
2022/12/23 10:26:28;;;;;;;60.53;34.30;;;;;;;8.29;73.17;94738.34;5083651;28;20445;-77
2022/12/23 10:29:01;;;;;;;55.47;32.97;;;;;;;8.49;73.57;94748.09;5078810;28;20465;-75
2022/12/23 10:31:44;;;;;;;61.30;34.50;;;;;;;8.65;73.57;94745.06;5073517;28;20510;-75
2022/12/23 10:34:18;;;;;;;53.63;32.50;;;;;;;8.84;72.46;94741.84;5073506;28;20538;-74
2022/12/23 10:36:53;;;;;;;58.83;36.40;;;;;;;8.92;72.03;94742.88;5073412;28;20451;-74
2022/12/23 10:39:27;;;;;;;60.30;34.77;;;;;;;8.96;72.71;94731.22;5073945;28;20447;-75
2022/12/23 10:42:02;;;;;;;62.40;36.13;;;;;;;9.05;72.11;94732.25;5075227;28;20931;-74
2022/12/23 10:44:54;;;;;;;54.90;35.00;;;;;;;9.09;72.40;94717.97;5092519;28;20529;-75
2022/12/23 10:47:33;;;;;;;60.20;36.03;;;;;;;9.17;72.08;94709.47;5093111;28;20459;-73
2022/12/23 10:50:14;;;;;;;60.37;35.27;;;;;;;9.26;72.69;94714.81;5096960;28;20931;-74
2022/12/23 10:52:44;;;;;;;60.87;36.53;;;;;;;9.31;73.08;94712.63;5098753;28;20520;-73
2022/12/23 10:55:22;;;;;;;55.47;35.70;;;;;;;9.37;72.33;94706.06;5097073;28;20444;-75
2022/12/23 10:57:50;;;;;;;61.97;37.03;;;;;;;9.29;71.58;94709.31;5099685;28;20452;-72
2022/12/23 11:00:22;;;;;;;58.47;35.70;;;;;;;9.45;71.81;94700.16;5103190;28;20523;-72
2022/12/23 11:03:07;;;;;;;58.17;37.13;;;;;;;9.44;71.85;94701.97;5100733;28;20482;-74
2022/12/23 11:05:35;;;;;;;76.47;35.03;;;;;;;9.60;71.52;94701.53;5101743;28;20444;-74
2022/12/23 11:08:02;;;;;;;63.10;37.00;;;;;;;9.78;71.66;94697.31;5101380;28;20444;-73
2022/12/23 11:10:32;;;;;;;45.70;32.73;;;;;;;9.85;72.58;94687.19;5106624;28;20430;-74
2022/12/23 11:13:00;;;;;;;64.53;32.87;;;;;;;9.81;71.57;94698.84;5102194;28;20480;-74
2022/12/23 11:15:31;;;;;;;47.60;31.97;;;;;;;9.79;72.12;94703.41;5104215;28;20470;-75
2022/12/23 11:18:05;;;;;;;47.23;30.30;;;;;;;9.74;72.36;94698.56;5103624;28;20456;-75
2022/12/23 11:20:33;;;;;;;46.80;31.83;;;;;;;9.84;71.81;94696.00;5097400;28;20451;-75
2022/12/23 11:23:01;;;;;;;47.17;31.27;;;;;;;9.89;72.17;94691.19;5044150;28;20515;-74
2022/12/23 11:25:32;;;;;;;49.87;29.50;;;;;;;9.92;72.67;94690.94;5095782;28;20449;-74
2022/12/23 11:28:02;;;;;;;54.00;31.77;;;;;;;9.98;72.81;94687.78;5060581;28;20445;-74
2022/12/23 11:30:29;;;;;;;62.43;32.23;;;;;;;9.97;71.86;94680.03;5044368;28;20799;-75
2022/12/23 11:32:57;;;;;;;61.57;34.17;;;;;;;9.99;72.40;94694.69;5095962;28;20444;-73
2022/12/23 11:35:28;;;;;;;60.53;33.70;;;;;;;9.92;72.19;94693.56;5096260;28;20526;-77
2022/12/23 11:37:57;;;;;;;55.47;32.00;;;;;;;9.93;71.83;94687.34;5095830;28;20939;-73
2022/12/23 11:40:27;;;;;;;51.60;32.20;;;;;;;9.85;72.67;94695.88;5090623;28;20456;-74
2022/12/23 11:42:59;;;;;;;47.57;33.80;;;;;;;9.84;72.70;94693.38;5043765;28;20436;-75
2022/12/23 11:45:27;;;;;;;58.00;34.50;;;;;;;9.86;72.69;94697.53;5096123;28;20448;-74
2022/12/23 11:47:55;;;;;;;62.60;34.10;;;;;;;9.86;73.01;94697.53;5090691;28;20456;-74
2022/12/23 11:50:35;;;;;;;58.03;32.20;;;;;;;9.85;72.28;94695.88;5043289;28;20454;-74
2022/12/23 11:53:11;;;;;;;56.90;35.40;;;;;;;9.85;72.90;94698.50;5095440;28;20964;-73
2022/12/23 11:55:46;;;;;;;63.57;39.13;;;;;;;9.79;72.92;94703.41;5095588;28;20455;-74
2022/12/23 11:58:21;;;;;;;62.10;39.70;;;;;;;9.68;72.28;94700.88;5095616;28;20455;-73
2022/12/23 12:00:54;;;;;;;60.47;38.23;;;;;;;9.59;72.68;94697.25;5095499;28;20792;-74